Time;durP1;ratioP1;P1;durP2;ratioP2;P2;SDS_P1;SDS_P2;PMS_P1;PMS_P2;Temp;Humidity;BMP_temperature;BMP_pressure;BME280_temperature;BME280_humidity;BME280_pressure;Samples;Min_cycle;Max_cycle;Signal;HPM_P1;HPM_P2
2024/01/26 00:01:46;;;;;;;0.00;0.00;;;9.70;99.90;;;;;;5065479;28;20025;-54
2024/01/26 00:04:12;;;;;;;0.00;0.00;;;9.70;99.90;;;;;;5068636;28;20475;-54
2024/01/26 00:06:37;;;;;;;0.00;0.00;;;9.70;99.90;;;;;;5065046;28;20094;-56
2024/01/26 00:09:13;;;;;;;0.00;0.00;;;9.70;99.90;;;;;;5067584;28;20032;-54
2024/01/26 00:11:43;;;;;;;0.00;0.00;;;9.70;99.90;;;;;;5067570;28;20024;-54
2024/01/26 00:14:09;;;;;;;0.00;0.00;;;9.70;99.90;;;;;;5067255;28;20033;-54
2024/01/26 00:16:38;;;;;;;0.00;0.00;;;9.80;99.90;;;;;;5075476;28;20037;-53
2024/01/26 00:19:07;;;;;;;0.00;0.00;;;9.80;99.90;;;;;;5065751;28;20032;-54
2024/01/26 00:21:33;;;;;;;0.00;0.00;;;9.90;99.90;;;;;;5069193;28;20507;-55
2024/01/26 00:23:59;;;;;;;0.00;0.00;;;9.80;99.90;;;;;;5065969;28;20037;-54
2024/01/26 00:26:24;;;;;;;0.00;0.00;;;9.90;99.90;;;;;;5066015;28;20028;-56
2024/01/26 00:28:51;;;;;;;0.00;0.00;;;9.90;99.90;;;;;;5065045;28;20043;-54
2024/01/26 00:31:17;;;;;;;0.00;0.00;;;9.90;99.90;;;;;;5065886;28;20060;-53
2024/01/26 00:33:43;;;;;;;0.00;0.00;;;9.90;99.90;;;;;;5068512;28;20032;-54
2024/01/26 00:36:09;;;;;;;0.00;0.00;;;9.90;99.90;;;;;;5066554;28;20486;-56
2024/01/26 00:38:35;;;;;;;0.00;0.00;;;10.00;99.90;;;;;;5067314;28;20044;-56
2024/01/26 00:41:01;;;;;;;0.00;0.00;;;;;;;;;;5058524;28;20472;-53
2024/01/26 00:43:26;;;;;;;0.00;0.00;;;;;;;;;;5070014;28;20529;-55
2024/01/26 00:45:52;;;;;;;0.00;0.00;;;;;;;;;;5064813;28;20920;-55
2024/01/26 00:48:18;;;;;;;0.00;0.00;;;;;;;;;;5066478;28;20044;-55
2024/01/26 00:50:46;;;;;;;0.00;0.00;;;;;;;;;;5050185;28;20588;-54
2024/01/26 00:53:12;;;;;;;0.00;0.00;;;;;;;;;;5062986;28;20538;-55
2024/01/26 00:55:38;;;;;;;0.00;0.00;;;;;;;;;;5060515;28;20024;-54
2024/01/26 00:58:05;;;;;;;0.00;0.00;;;;;;;;;;5069017;28;20544;-55
2024/01/26 01:00:31;;;;;;;0.00;0.00;;;;;;;;;;5061772;28;20128;-54
2024/01/26 01:02:57;;;;;;;0.00;0.00;;;;;;;;;;5043938;28;20388;-56
2024/01/26 01:05:22;;;;;;;0.00;0.00;;;;;;;;;;5060176;28;20029;-54
2024/01/26 01:07:49;;;;;;;0.00;0.00;;;;;;;;;;5073905;28;20439;-55
2024/01/26 01:10:15;;;;;;;0.00;0.00;;;;;;;;;;5065082;28;20028;-54
2024/01/26 01:12:42;;;;;;;0.00;0.00;;;;;;;;;;5073820;28;20101;-55
2024/01/26 01:15:11;;;;;;;0.00;0.00;;;;;;;;;;5063277;28;20115;-55
2024/01/26 01:17:41;;;;;;;0.00;0.00;;;;;;;;;;5064451;28;20048;-55
2024/01/26 01:20:08;;;;;;;0.00;0.00;;;;;;;;;;5063084;28;20031;-55
2024/01/26 01:22:35;;;;;;;0.00;0.00;;;;;;;;;;5067595;28;20031;-55
2024/01/26 01:25:01;;;;;;;0.00;0.00;;;;;;;;;;5069121;28;20410;-56
2024/01/26 01:27:27;;;;;;;0.00;0.00;;;;;;;;;;5067676;28;20081;-55
2024/01/26 01:29:53;;;;;;;0.00;0.00;;;;;;;;;;5064388;28;20056;-54
2024/01/26 01:32:19;;;;;;;0.00;0.00;;;;;;;;;;5067448;28;20029;-55
2024/01/26 01:34:45;;;;;;;0.00;0.00;;;;;;;;;;5070793;28;20032;-57
2024/01/26 01:37:11;;;;;;;0.00;0.00;;;;;;;;;;5064314;28;20410;-56
2024/01/26 01:39:37;;;;;;;0.00;0.00;;;;;;;;;;5062456;28;20040;-55
2024/01/26 01:42:03;;;;;;;0.00;0.00;;;;;;;;;;5061721;28;20087;-54
2024/01/26 01:44:30;;;;;;;0.00;0.00;;;;;;;;;;5068001;28;20020;-57
2024/01/26 01:46:56;;;;;;;0.00;0.00;;;;;;;;;;5066189;28;20483;-57
2024/01/26 01:49:22;;;;;;;0.00;0.00;;;;;;;;;;5050467;28;20038;-57
2024/01/26 01:51:50;;;;;;;0.00;0.00;;;;;;;;;;5062521;28;20035;-57
2024/01/26 01:54:16;;;;;;;0.00;0.00;;;;;;;;;;5063754;28;20032;-57
2024/01/26 01:56:43;;;;;;;0.00;0.00;;;;;;;;;;5063528;28;20186;-57
2024/01/26 01:59:10;;;;;;;0.00;0.00;;;;;;;;;;5059950;28;20123;-57
2024/01/26 02:01:36;;;;;;;0.00;0.00;;;;;;;;;;5061275;28;20068;-57
2024/01/26 02:04:04;;;;;;;0.00;0.00;;;;;;;;;;5066835;28;20098;-55
2024/01/26 02:06:31;;;;;;;0.00;0.00;;;;;;;;;;5063985;28;20459;-57
2024/01/26 02:08:57;;;;;;;0.00;0.00;;;;;;;;;;5045330;28;20173;-57
2024/01/26 02:11:23;;;;;;;0.00;0.00;;;;;;;;;;5064541;28;20117;-57
2024/01/26 02:13:50;;;;;;;0.00;0.00;;;;;;;;;;5065343;28;20541;-57
2024/01/26 02:16:16;;;;;;;0.00;0.00;;;;;;;;;;5064631;28;20090;-58
2024/01/26 02:18:42;;;;;;;0.00;0.00;;;;;;;;;;5065121;28;20435;-57
2024/01/26 02:21:08;;;;;;;0.00;0.00;;;;;;;;;;5047081;28;20609;-57
2024/01/26 02:23:34;;;;;;;0.00;0.00;;;;;;;;;;5062217;28;20324;-56
2024/01/26 02:26:00;;;;;;;0.00;0.00;;;;;;;;;;5044054;28;20020;-56
2024/01/26 02:28:26;;;;;;;0.00;0.00;;;;;;;;;;5059704;28;20040;-56
2024/01/26 02:30:52;;;;;;;0.00;0.00;;;;;;;;;;5065189;28;20115;-58
2024/01/26 02:33:18;;;;;;;0.00;0.00;;;;;;;;;;5065988;28;20075;-57
2024/01/26 02:35:44;;;;;;;0.00;0.00;;;;;;;;;;5065724;28;20048;-57
2024/01/26 02:38:10;;;;;;;0.00;0.00;;;;;;;;;;5067415;28;20036;-55
2024/01/26 02:40:36;;;;;;;0.00;0.00;;;;;;;;;;5071969;28;20039;-57
2024/01/26 02:43:02;;;;;;;0.00;0.00;;;;;;;;;;5065126;28;20116;-58
2024/01/26 02:45:28;;;;;;;0.00;0.00;;;;;;;;;;5065693;28;20025;-56
2024/01/26 02:47:55;;;;;;;0.00;0.00;;;;;;;;;;5065429;28;20035;-57
2024/01/26 02:50:21;;;;;;;0.00;0.00;;;;;;;;;;5071110;28;20028;-57
2024/01/26 02:52:47;;;;;;;0.00;0.00;;;;;;;;;;5070834;28;20039;-57
2024/01/26 02:55:13;;;;;;;0.00;0.00;;;;;;;;;;5067880;28;20028;-55
2024/01/26 02:57:39;;;;;;;0.00;0.00;;;;;;;;;;5066999;28;20075;-55
2024/01/26 03:00:07;;;;;;;0.00;0.00;;;;;;;;;;5063914;28;20033;-54
2024/01/26 03:02:33;;;;;;;0.00;0.00;;;;;;;;;;5068010;28;20438;-55
2024/01/26 03:04:59;;;;;;;0.00;0.00;;;;;;;;;;5064625;28;20426;-58
2024/01/26 03:07:25;;;;;;;0.00;0.00;;;;;;;;;;5075196;28;20027;-57
2024/01/26 03:09:51;;;;;;;0.00;0.00;;;;;;;;;;5047788;28;20472;-57
2024/01/26 03:12:17;;;;;;;0.00;0.00;;;;;;;;;;5069732;28;20480;-56
2024/01/26 03:14:44;;;;;;;0.00;0.00;;;;;;;;;;5064103;28;20028;-58
2024/01/26 03:17:09;;;;;;;0.00;0.00;;;10.50;99.90;;;;;;5065577;28;20039;-57
2024/01/26 03:19:36;;;;;;;0.00;0.00;;;10.50;99.90;;;;;;5073294;28;20037;-56
2024/01/26 03:22:01;;;;;;;0.00;0.00;;;10.60;99.90;;;;;;5066831;28;20371;-57
2024/01/26 03:24:27;;;;;;;0.00;0.00;;;10.50;99.90;;;;;;5064981;28;20043;-57
2024/01/26 03:26:53;;;;;;;0.00;0.00;;;10.40;99.90;;;;;;5070953;28;20502;-57
2024/01/26 03:29:19;;;;;;;0.00;0.00;;;10.40;99.90;;;;;;5064278;28;20029;-56
2024/01/26 03:31:45;;;;;;;0.00;0.00;;;10.40;99.90;;;;;;5066751;28;20024;-56
2024/01/26 03:34:11;;;;;;;0.00;0.00;;;10.30;99.90;;;;;;5070908;28;20463;-56
2024/01/26 03:36:36;;;;;;;0.00;0.00;;;10.30;99.90;;;;;;5073495;28;20351;-56
2024/01/26 03:39:03;;;;;;;0.00;0.00;;;10.20;99.90;;;;;;5067589;28;20510;-57
2024/01/26 03:41:29;;;;;;;0.00;0.00;;;10.30;99.90;;;;;;5058258;28;20032;-57
2024/01/26 03:43:55;;;;;;;0.00;0.00;;;10.40;99.90;;;;;;5069944;28;20047;-56
2024/01/26 03:46:20;;;;;;;0.00;0.00;;;10.40;99.90;;;;;;5069347;28;20249;-56
2024/01/26 03:48:46;;;;;;;0.00;0.00;;;10.30;99.90;;;;;;5066940;28;20055;-57
2024/01/26 03:51:12;;;;;;;0.00;0.00;;;10.40;99.90;;;;;;5069049;28;20038;-58
2024/01/26 03:53:38;;;;;;;0.00;0.00;;;10.40;99.90;;;;;;5066194;28;20123;-57
2024/01/26 03:56:03;;;;;;;0.00;0.00;;;10.40;99.90;;;;;;5067976;28;20068;-57
2024/01/26 03:58:29;;;;;;;0.00;0.00;;;10.40;99.90;;;;;;5068727;28;20359;-56
2024/01/26 04:00:54;;;;;;;0.00;0.00;;;10.30;99.90;;;;;;5063130;28;20035;-57
2024/01/26 04:03:21;;;;;;;0.00;0.00;;;10.30;99.90;;;;;;5068077;28;20036;-58
2024/01/26 04:05:46;;;;;;;0.00;0.00;;;10.30;99.90;;;;;;5067272;28;20505;-57
2024/01/26 04:08:12;;;;;;;0.00;0.00;;;10.30;99.90;;;;;;5065999;28;20035;-57
2024/01/26 04:10:38;;;;;;;0.00;0.00;;;10.30;99.90;;;;;;5065859;28;20106;-57
2024/01/26 04:13:03;;;;;;;0.00;0.00;;;10.30;99.90;;;;;;5067288;28;20040;-57
2024/01/26 04:15:29;;;;;;;0.00;0.00;;;10.30;99.90;;;;;;5064894;28;20028;-57
2024/01/26 04:17:56;;;;;;;0.00;0.00;;;10.30;99.90;;;;;;5065605;28;20044;-57
2024/01/26 04:20:22;;;;;;;0.00;0.00;;;10.30;99.90;;;;;;5069083;28;20634;-57
2024/01/26 04:22:47;;;;;;;0.00;0.00;;;10.30;99.90;;;;;;5063765;28;20036;-56
2024/01/26 04:25:13;;;;;;;0.00;0.00;;;10.30;99.90;;;;;;5065220;28;20543;-57
2024/01/26 04:27:38;;;;;;;0.00;0.00;;;10.30;99.90;;;;;;5070741;28;20548;-58
2024/01/26 04:30:04;;;;;;;0.00;0.00;;;10.30;99.90;;;;;;5066197;28;20681;-57
2024/01/26 04:32:30;;;;;;;0.00;0.00;;;10.40;99.90;;;;;;5044866;28;20111;-57
2024/01/26 04:34:55;;;;;;;0.00;0.00;;;10.30;99.90;;;;;;5065788;28;20119;-56
2024/01/26 04:37:21;;;;;;;0.00;0.00;;;10.30;99.90;;;;;;5066975;28;20036;-57
2024/01/26 04:39:47;;;;;;;0.00;0.00;;;10.40;99.90;;;;;;5062886;28;20504;-57
2024/01/26 04:42:12;;;;;;;0.00;0.00;;;10.30;99.90;;;;;;5065687;28;20078;-56
2024/01/26 04:44:38;;;;;;;0.00;0.00;;;10.40;99.90;;;;;;5069191;28;20120;-58
2024/01/26 04:47:03;;;;;;;0.00;0.00;;;10.40;99.90;;;;;;5067320;28;20024;-57
2024/01/26 04:49:29;;;;;;;0.00;0.00;;;10.40;99.90;;;;;;5066124;28;20051;-54
2024/01/26 04:51:54;;;;;;;0.00;0.00;;;10.40;99.90;;;;;;5069034;28;20107;-56
2024/01/26 04:54:20;;;;;;;0.00;0.00;;;10.40;99.90;;;;;;5073315;28;20543;-56
2024/01/26 04:56:46;;;;;;;0.00;0.00;;;10.40;99.90;;;;;;5064097;28;20592;-57
2024/01/26 04:59:11;;;;;;;0.00;0.00;;;10.40;99.90;;;;;;5069934;28;20166;-57
2024/01/26 05:01:37;;;;;;;0.00;0.00;;;10.40;99.90;;;;;;5063455;28;20074;-57
2024/01/26 05:04:06;;;;;;;0.00;0.00;;;10.40;99.90;;;;;;5063395;28;20115;-57
2024/01/26 05:06:31;;;;;;;0.00;0.00;;;10.40;99.90;;;;;;5066341;28;20028;-56
2024/01/26 05:08:57;;;;;;;0.00;0.00;;;10.30;99.90;;;;;;5043316;28;20139;-57
2024/01/26 05:11:22;;;;;;;0.00;0.00;;;10.40;99.90;;;;;;5064638;28;20095;-56
2024/01/26 05:13:48;;;;;;;0.00;0.00;;;10.40;99.90;;;;;;5067824;28;20517;-57
2024/01/26 05:16:14;;;;;;;0.00;0.00;;;10.40;99.90;;;;;;5063915;28;20713;-57
2024/01/26 05:18:39;;;;;;;0.00;0.00;;;10.40;99.90;;;;;;5066992;28;20024;-56
2024/01/26 05:21:05;;;;;;;0.00;0.00;;;10.40;99.90;;;;;;5072777;28;20467;-56
2024/01/26 05:23:30;;;;;;;0.00;0.00;;;10.40;99.90;;;;;;5065529;28;20819;-57
2024/01/26 05:25:56;;;;;;;0.00;0.00;;;10.50;99.90;;;;;;5067659;28;20021;-57
2024/01/26 05:28:22;;;;;;;0.00;0.00;;;10.40;99.90;;;;;;5065254;28;20135;-56
2024/01/26 05:30:48;;;;;;;0.00;0.00;;;10.40;99.90;;;;;;5064637;28;20032;-57
2024/01/26 05:33:13;;;;;;;0.00;0.00;;;10.40;99.90;;;;;;5067225;28;20124;-58
2024/01/26 05:35:39;;;;;;;0.00;0.00;;;10.40;99.90;;;;;;5067837;28;20027;-54
2024/01/26 05:38:05;;;;;;;0.00;0.00;;;10.40;99.90;;;;;;5060858;28;20040;-56
2024/01/26 05:40:30;;;;;;;0.00;0.00;;;10.40;99.90;;;;;;5064363;28;20025;-55
2024/01/26 05:42:56;;;;;;;0.00;0.00;;;10.50;99.90;;;;;;5064252;28;20043;-53
2024/01/26 05:45:22;;;;;;;0.00;0.00;;;10.50;99.90;;;;;;5063067;28;20024;-53
2024/01/26 05:47:47;;;;;;;0.00;0.00;;;10.50;99.90;;;;;;5049128;28;20060;-53
2024/01/26 05:50:14;;;;;;;0.00;0.00;;;10.40;99.90;;;;;;5064686;28;20395;-54
2024/01/26 05:52:41;;;;;;;0.00;0.00;;;10.50;99.90;;;;;;5065586;28;20151;-54
2024/01/26 05:55:07;;;;;;;0.00;0.00;;;10.50;99.90;;;;;;5063271;28;20032;-54
2024/01/26 05:57:33;;;;;;;0.00;0.00;;;10.50;99.90;;;;;;5062463;28;20127;-56
2024/01/26 05:59:59;;;;;;;0.00;0.00;;;10.50;99.90;;;;;;5068442;28;20103;-54
2024/01/26 06:02:25;;;;;;;0.00;0.00;;;10.50;99.90;;;;;;5069386;28;20043;-55
2024/01/26 06:04:50;;;;;;;0.00;0.00;;;10.50;99.90;;;;;;5066520;28;20021;-55
2024/01/26 06:07:16;;;;;;;0.00;0.00;;;10.50;99.90;;;;;;5052194;28;20491;-54
2024/01/26 06:09:41;;;;;;;0.00;0.00;;;10.50;99.90;;;;;;5069842;28;20056;-55
2024/01/26 06:12:07;;;;;;;0.00;0.00;;;10.50;99.90;;;;;;5066250;28;20025;-56
2024/01/26 06:14:35;;;;;;;0.00;0.00;;;10.40;99.90;;;;;;5069255;28;20062;-56
2024/01/26 06:17:01;;;;;;;0.00;0.00;;;10.70;99.90;;;;;;5049916;28;20063;-53
2024/01/26 06:19:26;;;;;;;0.00;0.00;;;10.60;99.90;;;;;;5073846;28;20032;-54
2024/01/26 06:21:52;;;;;;;0.00;0.00;;;10.60;99.90;;;;;;5067175;28;20066;-55
2024/01/26 06:24:17;;;;;;;0.00;0.00;;;10.60;99.90;;;;;;5065434;28;20040;-55
2024/01/26 06:26:43;;;;;;;0.00;0.00;;;10.60;99.90;;;;;;5067226;28;20028;-56
2024/01/26 06:29:08;;;;;;;0.00;0.00;;;10.60;99.90;;;;;;5063088;28;20249;-55
2024/01/26 06:31:34;;;;;;;0.00;0.00;;;10.50;99.90;;;;;;5068312;28;20066;-54
2024/01/26 06:33:59;;;;;;;0.00;0.00;;;10.60;99.90;;;;;;5074871;28;20081;-53
2024/01/26 06:36:25;;;;;;;0.00;0.00;;;10.50;99.90;;;;;;5066802;28;20059;-55
2024/01/26 06:38:50;;;;;;;0.00;0.00;;;10.60;99.90;;;;;;5052319;28;20083;-54
2024/01/26 06:41:16;;;;;;;0.00;0.00;;;10.60;99.90;;;;;;5066441;28;20036;-55
2024/01/26 06:43:47;;;;;;;0.00;0.00;;;10.60;99.90;;;;;;5066428;28;20106;-54
2024/01/26 06:46:12;;;;;;;0.00;0.00;;;10.60;99.90;;;;;;5067645;28;20021;-54
2024/01/26 06:48:38;;;;;;;0.00;0.00;;;10.60;99.90;;;;;;5071302;28;20047;-54
2024/01/26 06:51:05;;;;;;;0.00;0.00;;;10.60;99.90;;;;;;5072131;28;20016;-55
2024/01/26 06:53:30;;;;;;;0.00;0.00;;;10.50;99.90;;;;;;5070293;28;20141;-55
2024/01/26 06:55:56;;;;;;;0.00;0.00;;;10.50;99.90;;;;;;5071483;28;20040;-57
2024/01/26 06:58:22;;;;;;;0.00;0.00;;;10.50;99.90;;;;;;5067512;28;20047;-57
2024/01/26 07:00:47;;;;;;;0.00;0.00;;;10.50;99.90;;;;;;5065612;28;20024;-57
2024/01/26 07:03:13;;;;;;;0.00;0.00;;;10.60;99.90;;;;;;5066551;28;20028;-57
2024/01/26 07:05:38;;;;;;;0.00;0.00;;;10.60;99.90;;;;;;5069702;28;20480;-56
2024/01/26 07:08:04;;;;;;;0.00;0.00;;;10.50;99.90;;;;;;5069768;28;20036;-56
2024/01/26 07:10:30;;;;;;;0.00;0.00;;;10.50;99.90;;;;;;5067620;28;20484;-57
2024/01/26 07:12:55;;;;;;;0.00;0.00;;;10.50;99.90;;;;;;5070276;28;20054;-56
2024/01/26 07:15:21;;;;;;;0.00;0.00;;;10.60;99.90;;;;;;5063821;28;20040;-56
2024/01/26 07:17:46;;;;;;;0.00;0.00;;;10.50;99.90;;;;;;5064888;28;20036;-57
2024/01/26 07:20:12;;;;;;;0.00;0.00;;;10.40;99.90;;;;;;5065921;28;20085;-58
2024/01/26 07:22:38;;;;;;;0.00;0.00;;;10.40;99.90;;;;;;5064563;28;20065;-57
2024/01/26 07:25:09;;;;;;;0.00;0.00;;;10.50;99.90;;;;;;5062795;28;20032;-58
2024/01/26 07:27:35;;;;;;;0.00;0.00;;;10.40;99.90;;;;;;5065727;28;20025;-58
2024/01/26 07:30:05;;;;;;;0.00;0.00;;;10.50;99.90;;;;;;5070009;28;20388;-57
2024/01/26 07:32:31;;;;;;;0.00;0.00;;;10.40;99.90;;;;;;5064684;28;20033;-57
2024/01/26 07:34:56;;;;;;;0.00;0.00;;;10.40;99.90;;;;;;5057890;28;20425;-57
2024/01/26 07:37:22;;;;;;;0.00;0.00;;;10.40;99.90;;;;;;5064338;28;20741;-56
2024/01/26 07:39:48;;;;;;;0.00;0.00;;;10.50;99.90;;;;;;5061118;28;20503;-57
2024/01/26 07:42:13;;;;;;;0.00;0.00;;;10.40;99.90;;;;;;5061892;28;20020;-55
2024/01/26 07:44:39;;;;;;;0.00;0.00;;;10.40;99.90;;;;;;5067864;28;20029;-57
2024/01/26 07:47:04;;;;;;;0.00;0.00;;;10.40;99.90;;;;;;5045882;28;20035;-57
2024/01/26 07:49:30;;;;;;;0.00;0.00;;;10.40;99.90;;;;;;5063499;28;20067;-56
2024/01/26 07:51:58;;;;;;;0.00;0.00;;;;;;;;;;5061723;28;20106;-57
2024/01/26 07:54:24;;;;;;;0.00;0.00;;;;;;;;;;5060609;28;20059;-54
2024/01/26 07:56:50;;;;;;;0.00;0.00;;;;;;;;;;5063757;28;20040;-55
2024/01/26 07:59:16;;;;;;;0.00;0.00;;;;;;;;;;5064779;28;20060;-54
2024/01/26 08:01:42;;;;;;;0.00;0.00;;;;;;;;;;5064313;28;20052;-55
2024/01/26 08:04:07;;;;;;;0.00;0.00;;;;;;;;;;5056838;28;20024;-55
2024/01/26 08:06:34;;;;;;;0.00;0.00;;;;;;;;;;5069703;28;20035;-55
2024/01/26 08:09:00;;;;;;;0.00;0.00;;;;;;;;;;5069609;28;20111;-54
2024/01/26 08:11:26;;;;;;;0.00;0.00;;;;;;;;;;5065168;28;20040;-55
2024/01/26 08:13:53;;;;;;;0.00;0.00;;;;;;;;;;5063590;28;20036;-55
2024/01/26 08:16:19;;;;;;;0.00;0.00;;;;;;;;;;5061768;28;20075;-54
2024/01/26 08:18:45;;;;;;;0.00;0.00;;;;;;;;;;5063663;28;20097;-55
2024/01/26 08:21:12;;;;;;;0.00;0.00;;;;;;;;;;5065588;28;20024;-54
2024/01/26 08:23:39;;;;;;;0.00;0.00;;;;;;;;;;5065455;28;20994;-55
2024/01/26 08:26:05;;;;;;;0.00;0.00;;;;;;;;;;5066109;28;20766;-56
2024/01/26 08:28:31;;;;;;;0.00;0.00;;;10.80;99.90;;;;;;5067488;28;20028;-54
2024/01/26 08:30:56;;;;;;;0.00;0.00;;;10.90;99.90;;;;;;5038595;28;20083;-55
2024/01/26 08:33:22;;;;;;;0.00;0.00;;;10.80;99.90;;;;;;5063772;28;20051;-54
2024/01/26 08:35:47;;;;;;;0.00;0.00;;;10.90;99.90;;;;;;5043478;28;20023;-55
2024/01/26 08:38:13;;;;;;;0.00;0.00;;;10.90;99.90;;;;;;5062040;28;20547;-54
2024/01/26 08:40:38;;;;;;;0.00;0.00;;;10.90;99.90;;;;;;5064890;28;20368;-54
2024/01/26 08:43:04;;;;;;;0.00;0.00;;;10.90;99.90;;;;;;5063792;28;20075;-55
2024/01/26 08:45:30;;;;;;;0.00;0.00;;;;;;;;;;5061652;28;20158;-56
2024/01/26 08:47:55;;;;;;;0.00;0.00;;;10.70;99.90;;;;;;5064487;28;20535;-54
2024/01/26 08:50:21;;;;;;;0.00;0.00;;;;;;;;;;5069551;28;20033;-54
2024/01/26 08:52:47;;;;;;;0.00;0.00;;;;;;;;;;5063422;28;20037;-52
2024/01/26 08:55:13;;;;;;;0.00;0.00;;;;;;;;;;5064591;28;20032;-55
2024/01/26 08:57:40;;;;;;;0.00;0.00;;;;;;;;;;5063093;28;20102;-54
2024/01/26 09:00:08;;;;;;;0.00;0.00;;;;;;;;;;5066393;28;20048;-54
2024/01/26 09:02:35;;;;;;;0.00;0.00;;;11.20;99.90;;;;;;5063539;28;20547;-53
2024/01/26 09:05:00;;;;;;;0.00;0.00;;;11.30;99.90;;;;;;5058829;28;20031;-53
2024/01/26 09:07:26;;;;;;;0.00;0.00;;;11.30;99.90;;;;;;5062251;28;20025;-55
2024/01/26 09:09:52;;;;;;;0.00;0.00;;;11.20;99.90;;;;;;5063652;28;20387;-54
2024/01/26 09:12:18;;;;;;;0.00;0.00;;;11.20;99.90;;;;;;5060513;28;20554;-54
2024/01/26 09:14:44;;;;;;;0.00;0.00;;;11.20;99.90;;;;;;5061112;28;20112;-57
2024/01/26 09:17:09;;;;;;;0.00;0.00;;;11.20;99.90;;;;;;5066573;28;20035;-57
2024/01/26 09:19:35;;;;;;;0.00;0.00;;;11.20;99.90;;;;;;5062446;28;20051;-57
2024/01/26 09:22:03;;;;;;;0.00;0.00;;;;;;;;;;5061532;28;20395;-56
2024/01/26 09:24:28;;;;;;;0.00;0.00;;;11.30;99.90;;;;;;5062681;28;20029;-57
2024/01/26 09:26:55;;;;;;;0.00;0.00;;;11.30;99.90;;;;;;5060158;28;20025;-57
2024/01/26 09:29:22;;;;;;;0.00;0.00;;;;;;;;;;5063059;28;20024;-57
2024/01/26 09:31:50;;;;;;;0.00;0.00;;;;;;;;;;5060501;28;20028;-57
2024/01/26 09:34:16;;;;;;;0.00;0.00;;;;;;;;;;5062237;28;20503;-57
2024/01/26 09:36:42;;;;;;;0.00;0.00;;;;;;;;;;5069803;28;20020;-57
2024/01/26 09:39:09;;;;;;;0.00;0.00;;;;;;;;;;5068226;28;20028;-57
2024/01/26 09:41:35;;;;;;;0.00;0.00;;;;;;;;;;5070457;28;20107;-57
2024/01/26 09:44:01;;;;;;;0.00;0.00;;;;;;;;;;5066024;28;20453;-56
2024/01/26 09:46:28;;;;;;;0.00;0.00;;;;;;;;;;5059512;28;20069;-58
2024/01/26 09:48:54;;;;;;;0.00;0.00;;;11.40;99.90;;;;;;5062751;28;20056;-56
2024/01/26 09:51:22;;;;;;;0.00;0.00;;;11.50;99.90;;;;;;5062222;28;20028;-57
2024/01/26 09:53:51;;;;;;;0.00;0.00;;;11.40;99.90;;;;;;5047598;28;20070;-56
2024/01/26 09:56:18;;;;;;;0.00;0.00;;;11.40;99.90;;;;;;5068355;28;20170;-57
2024/01/26 09:58:44;;;;;;;0.00;0.00;;;11.30;99.90;;;;;;5033671;28;20040;-57
2024/01/26 10:01:12;;;;;;;0.10;0.10;;;11.30;99.90;;;;;;5064800;28;20031;-57
2024/01/26 10:03:37;;;;;;;0.00;0.00;;;11.30;99.90;;;;;;5064435;28;20067;-56
2024/01/26 10:06:03;;;;;;;0.55;0.28;;;11.40;99.90;;;;;;5072239;28;20103;-57
2024/01/26 10:08:39;;;;;;;0.30;0.30;;;11.40;99.90;;;;;;5069164;28;20070;-56
2024/01/26 10:11:04;;;;;;;0.17;0.15;;;11.40;99.90;;;;;;5070374;28;20115;-57
2024/01/26 10:13:30;;;;;;;0.57;0.30;;;11.40;99.90;;;;;;5068168;28;20199;-56
2024/01/26 10:16:12;;;;;;;0.20;0.20;;;11.30;99.90;;;;;;5067241;28;20031;-56
2024/01/26 10:18:40;;;;;;;0.00;0.00;;;11.30;99.90;;;;;;5064373;28;20549;-55
2024/01/26 10:21:05;;;;;;;0.28;0.28;;;11.30;99.90;;;;;;5065456;28;20039;-55
2024/01/26 10:23:31;;;;;;;0.50;0.50;;;11.30;99.90;;;;;;5066613;28;20348;-56
2024/01/26 10:25:56;;;;;;;1.85;0.65;;;11.30;99.90;;;;;;5069443;28;20034;-56
2024/01/26 10:28:22;;;;;;;0.45;0.40;;;11.30;99.90;;;;;;5064496;28;20960;-57
2024/01/26 10:30:48;;;;;;;0.45;0.45;;;11.30;99.90;;;;;;5066635;28;20463;-57
2024/01/26 10:33:14;;;;;;;0.00;0.00;;;11.30;99.90;;;;;;5070309;28;20036;-57
2024/01/26 10:35:47;;;;;;;0.57;0.57;;;11.30;99.90;;;;;;5046559;28;20027;-54
2024/01/26 10:38:14;;;;;;;0.28;0.28;;;11.20;99.90;;;;;;5063917;28;20632;-56
2024/01/26 10:40:52;;;;;;;0.30;0.20;;;11.20;99.90;;;;;;5061593;28;20511;-56
2024/01/26 10:43:18;;;;;;;0.30;0.30;;;11.30;99.90;;;;;;5062895;28;20039;-54
2024/01/26 10:45:45;;;;;;;0.30;0.30;;;11.30;99.90;;;;;;5061983;28;20441;-56
2024/01/26 10:48:12;;;;;;;0.10;0.10;;;11.30;99.90;;;;;;5059833;28;20036;-54
2024/01/26 10:50:40;;;;;;;0.40;0.40;;;11.30;99.90;;;;;;5055916;28;20127;-56
2024/01/26 10:53:06;;;;;;;0.75;0.45;;;11.20;99.90;;;;;;5063777;28;20029;-55
2024/01/26 10:55:32;;;;;;;0.38;0.38;;;10.80;99.90;;;;;;5069101;28;20402;-54
2024/01/26 10:58:02;;;;;;;0.20;0.17;;;10.30;99.90;;;;;;5050545;28;20027;-54
2024/01/26 11:00:28;;;;;;;0.10;0.10;;;10.20;99.90;;;;;;5042628;28;20032;-54
2024/01/26 11:02:54;;;;;;;0.98;0.20;;;10.20;99.90;;;;;;5064590;28;20049;-54
2024/01/26 11:05:20;;;;;;;0.13;0.10;;;10.20;99.90;;;;;;5067283;28;20028;-54
2024/01/26 11:07:47;;;;;;;0.25;0.10;;;10.10;99.90;;;;;;5068073;28;20017;-54
2024/01/26 11:10:22;;;;;;;0.15;0.15;;;10.10;99.90;;;;;;5063860;28;20046;-52
2024/01/26 11:13:02;;;;;;;0.93;0.55;;;10.10;99.90;;;;;;5067137;28;20086;-55
2024/01/26 11:15:28;;;;;;;2.97;0.95;;;10.20;99.90;;;;;;5070172;28;20032;-54
2024/01/26 11:17:58;;;;;;;0.00;0.00;;;10.20;99.90;;;;;;5066277;28;20377;-54
2024/01/26 11:20:31;;;;;;;0.20;0.10;;;10.30;99.90;;;;;;5059667;28;20104;-55
2024/01/26 11:23:11;;;;;;;0.10;0.10;;;10.30;99.90;;;;;;5063751;28;20029;-54
2024/01/26 11:25:43;;;;;;;0.15;0.15;;;10.30;99.90;;;;;;5064087;28;20639;-53
2024/01/26 11:28:09;;;;;;;3.25;0.30;;;10.30;99.90;;;;;;5063104;28;20458;-54
2024/01/26 11:30:35;;;;;;;0.10;0.00;;;10.40;99.90;;;;;;5060959;28;20041;-55
2024/01/26 11:33:02;;;;;;;3.95;0.63;;;10.40;99.90;;;;;;5070625;28;20172;-53
2024/01/26 11:35:28;;;;;;;1.10;0.30;;;10.40;99.90;;;;;;5070069;28;20024;-53
2024/01/26 11:37:56;;;;;;;1.45;0.63;;;10.40;99.90;;;;;;5065240;28;20040;-53
2024/01/26 11:40:23;;;;;;;2.08;0.85;;;10.40;99.90;;;;;;5067825;28;20146;-52
2024/01/26 11:42:49;;;;;;;0.52;0.30;;;10.40;99.90;;;;;;5065683;28;20039;-54
2024/01/26 11:45:27;;;;;;;0.43;0.03;;;10.40;99.90;;;;;;5061384;28;20415;-55
2024/01/26 11:47:52;;;;;;;0.00;0.00;;;10.40;99.90;;;;;;5068132;28;20305;-53
2024/01/26 11:50:19;;;;;;;1.35;0.65;;;10.40;99.90;;;;;;5070427;28;20028;-52
2024/01/26 11:52:44;;;;;;;0.30;0.20;;;10.30;99.90;;;;;;5066117;28;20029;-56
2024/01/26 11:55:12;;;;;;;0.10;0.10;;;10.30;99.90;;;;;;5067603;28;20027;-56
2024/01/26 11:57:38;;;;;;;0.17;0.17;;;10.30;99.90;;;;;;5063768;28;20424;-56
2024/01/26 12:00:06;;;;;;;0.13;0.13;;;10.20;99.90;;;;;;5063566;28;20078;-54
2024/01/26 12:02:32;;;;;;;2.13;0.98;;;10.10;99.90;;;;;;5049763;28;20036;-56
2024/01/26 12:04:57;;;;;;;0.30;0.20;;;9.90;99.90;;;;;;5063467;28;20036;-52
2024/01/26 12:07:23;;;;;;;0.10;0.10;;;9.90;99.90;;;;;;5072174;28;20024;-54
2024/01/26 12:09:49;;;;;;;0.52;0.22;;;9.80;99.90;;;;;;5064272;28;20035;-55
2024/01/26 12:12:15;;;;;;;0.55;0.13;;;9.70;99.90;;;;;;5073609;28;20025;-59
2024/01/26 12:14:42;;;;;;;2.95;0.32;;;9.60;99.90;;;;;;5065132;28;20024;-55
2024/01/26 12:17:07;;;;;;;0.40;0.20;;;9.60;99.90;;;;;;5061683;28;20048;-53
2024/01/26 12:19:33;;;;;;;0.20;0.15;;;9.70;99.90;;;;;;5065101;28;20111;-55
2024/01/26 12:21:58;;;;;;;1.17;0.20;;;9.70;99.90;;;;;;5068371;28;20037;-55
2024/01/26 12:24:24;;;;;;;0.40;0.22;;;9.80;99.90;;;;;;5060893;28;20041;-54
2024/01/26 12:26:51;;;;;;;0.00;0.00;;;9.90;99.90;;;;;;5068167;28;20122;-54
2024/01/26 12:29:17;;;;;;;0.30;0.03;;;9.90;99.90;;;;;;5066073;28;20047;-55
2024/01/26 12:31:42;;;;;;;1.00;0.20;;;10.00;99.90;;;;;;5061968;28;22304;-55
2024/01/26 12:34:14;;;;;;;0.45;0.13;;;10.10;99.90;;;;;;5062338;28;20036;-55
2024/01/26 12:36:40;;;;;;;0.10;0.00;;;10.20;99.90;;;;;;5067265;28;20020;-53
2024/01/26 12:39:06;;;;;;;0.75;0.10;;;10.30;99.90;;;;;;5064470;28;20148;-54
2024/01/26 12:41:35;;;;;;;0.00;0.00;;;10.30;99.90;;;;;;5072356;28;20154;-55
2024/01/26 12:44:01;;;;;;;0.52;0.25;;;10.40;99.90;;;;;;5060609;28;20093;-55
2024/01/26 12:46:27;;;;;;;0.65;0.10;;;10.30;99.90;;;;;;5067732;28;20099;-54
2024/01/26 12:48:53;;;;;;;0.00;0.00;;;10.10;99.90;;;;;;5043820;28;20559;-52
2024/01/26 12:51:19;;;;;;;0.10;0.10;;;10.00;99.90;;;;;;5066098;28;20082;-55
2024/01/26 12:53:46;;;;;;;0.28;0.25;;;10.00;99.90;;;;;;5065189;28;20549;-55
2024/01/26 12:56:12;;;;;;;0.00;0.00;;;9.90;99.90;;;;;;5066622;28;20077;-52
2024/01/26 12:58:37;;;;;;;0.08;0.03;;;9.80;99.90;;;;;;5062293;28;20040;-54
2024/01/26 13:01:03;;;;;;;0.00;0.00;;;9.70;99.90;;;;;;5061489;28;20056;-55
2024/01/26 13:03:28;;;;;;;0.10;0.10;;;9.80;99.90;;;;;;5063809;28;20028;-53
2024/01/26 13:05:54;;;;;;;0.20;0.10;;;9.80;99.90;;;;;;5051100;28;20630;-54
2024/01/26 13:08:20;;;;;;;0.77;0.38;;;9.90;99.90;;;;;;5060707;28;20487;-54
2024/01/26 13:10:46;;;;;;;1.73;0.40;;;9.80;99.90;;;;;;5053460;28;20064;-55
2024/01/26 13:13:13;;;;;;;0.47;0.15;;;9.70;99.90;;;;;;5062072;28;20056;-54